Ancora, New Jersey
Current Conditions -  °F | °C
As of 12:54 AM on Thursday 23 Oct 2014 (Local Time) from KACY Reporting Station
Light Rain Light Rain  
Wind Chill: 51°   Ceiling: 1700
Heat Index: 51°   Visibility: 9mi
Dew Point: 50°   Wind: 16mph
Humidity: 96%   Direction: 330°NNW
Pressure: 29.7"   Gusts: 29mph
Location:  39.637°N, 74.7602°W
Report Text: KACY 230454Z 33014G25KT 9SM -RA SCT012 BKN017 OVC022 11/10 A2970 RMK AO2 SLP058 P0002 T01060100 401670106
Loading
Personal Weather Stations






























Interactive Weather Map
Tropical Storm Tracking
New forecast layout! Learn more

10-Day Weather Forecast

Advertisements
Track Severe Weather on mobile